Time;durP1;ratioP1;P1;durP2;ratioP2;P2;SDS_P1;SDS_P2;PMS_P1;PMS_P2;Temp;Humidity;BMP_temperature;BMP_pressure;BME280_temperature;BME280_humidity;BME280_pressure;Samples;Min_cycle;Max_cycle;Signal;HPM_P1;HPM_P2
2023/09/19 00:02:40;;;;;;;6.10;5.50;;;25.70;63.60;;;;;;229603;1263;22952;-51
2023/09/19 00:07:44;;;;;;;8.80;6.10;;;25.70;63.70;;;;;;229593;1251;22319;-53
2023/09/19 00:12:47;;;;;;;5.10;4.60;;;25.70;63.80;;;;;;229426;1263;238976;-53
2023/09/19 00:17:54;;;;;;;8.10;4.20;;;25.70;63.70;;;;;;229620;1249;22979;-53
2023/09/19 00:23:05;;;;;;;6.40;3.10;;;25.50;63.90;;;;;;229635;1255;22786;-52
2023/09/19 00:28:08;;;;;;;5.10;3.10;;;25.40;63.80;;;;;;229599;1251;23179;-53
2023/09/19 00:33:16;;;;;;;4.70;2.60;;;25.40;64.40;;;;;;229611;1249;23115;-54
2023/09/19 00:38:22;;;;;;;5.50;2.80;;;25.40;64.00;;;;;;229584;1263;22294;-53
2023/09/19 00:43:25;;;;;;;3.20;2.40;;;25.40;64.10;;;;;;229609;1260;22282;-53
2023/09/19 00:48:29;;;;;;;4.10;2.20;;;25.40;63.90;;;;;;229603;1263;22293;-54
2023/09/19 00:53:33;;;;;;;3.60;2.70;;;25.40;63.80;;;;;;229623;1248;22257;-53
2023/09/19 00:58:37;;;;;;;2.50;2.30;;;25.50;63.80;;;;;;229600;1263;22923;-55
2023/09/19 01:03:41;;;;;;;3.40;2.20;;;25.50;63.80;;;;;;228730;1251;22612;-52
2023/09/19 01:08:44;;;;;;;4.00;2.80;;;25.40;64.10;;;;;;229549;1255;22300;-54
2023/09/19 01:14:14;;;;;;;2.70;2.30;;;25.50;63.80;;;;;;229577;1248;22278;-53
2023/09/19 01:19:54;;;;;;;5.00;2.60;;;25.50;63.70;;;;;;229552;1256;22266;-54
2023/09/19 01:25:28;;;;;;;3.40;2.50;;;25.50;63.80;;;;;;229540;1248;23993;-53
2023/09/19 01:30:34;;;;;;;4.60;2.00;;;25.50;63.70;;;;;;229580;1263;23492;-52
2023/09/19 01:35:39;;;;;;;4.00;2.10;;;25.50;63.80;;;;;;229571;1247;22441;-52
2023/09/19 01:40:43;;;;;;;5.30;2.20;;;25.40;63.80;;;;;;229550;1251;22299;-53
2023/09/19 01:46:17;;;;;;;3.90;1.90;;;25.40;64.00;;;;;;229618;1252;22294;-52
2023/09/19 01:51:37;;;;;;;4.80;1.90;;;25.40;64.00;;;;;;229533;1256;22284;-53
2023/09/19 01:56:52;;;;;;;7.70;2.00;;;25.40;64.20;;;;;;229553;1248;22281;-52
2023/09/19 02:01:56;;;;;;;2.50;1.80;;;25.30;64.30;;;;;;229640;1252;23060;-50
2023/09/19 02:07:00;;;;;;;4.90;1.60;;;25.40;64.30;;;;;;229593;1248;22344;-51
2023/09/19 02:12:03;;;;;;;2.80;1.90;;;25.40;64.20;;;;;;229628;1249;22369;-52
2023/09/19 02:17:07;;;;;;;3.00;1.90;;;25.40;64.20;;;;;;229559;1249;22270;-52
2023/09/19 02:22:10;;;;;;;3.70;2.00;;;25.40;64.20;;;;;;229517;1248;22266;-53
2023/09/19 02:27:15;;;;;;;3.40;1.70;;;25.40;64.30;;;;;;229561;1263;22258;-52
2023/09/19 02:32:18;;;;;;;4.80;1.80;;;25.40;64.20;;;;;;229518;1248;22330;-52
2023/09/19 02:37:22;;;;;;;4.60;1.90;;;25.40;64.50;;;;;;229609;1247;22251;-52
2023/09/19 02:42:25;;;;;;;4.30;2.10;;;25.50;64.40;;;;;;229403;1251;22259;-52
2023/09/19 02:47:28;;;;;;;2.10;1.70;;;25.50;64.50;;;;;;229537;1252;22289;-54
2023/09/19 02:52:31;;;;;;;2.30;1.70;;;25.40;64.50;;;;;;229583;1263;22339;-53
2023/09/19 02:57:34;;;;;;;2.70;1.50;;;25.40;64.50;;;;;;229558;1252;23895;-52
2023/09/19 03:02:37;;;;;;;3.40;2.00;;;25.40;64.60;;;;;;229567;1263;22320;-54
2023/09/19 03:07:42;;;;;;;2.50;1.50;;;25.40;64.90;;;;;;229599;1252;23221;-52
2023/09/19 03:12:46;;;;;;;6.50;1.80;;;25.40;64.70;;;;;;229586;1263;22349;-49
2023/09/19 03:17:49;;;;;;;5.40;1.90;;;25.40;64.90;;;;;;229578;1263;22324;-52
2023/09/19 03:22:57;;;;;;;2.60;2.10;;;25.40;64.80;;;;;;229539;1263;22289;-53
2023/09/19 03:27:59;;;;;;;1.80;1.70;;;25.40;64.70;;;;;;229656;1252;22282;-50
2023/09/19 03:33:04;;;;;;;1.80;1.60;;;25.40;64.70;;;;;;229593;1250;22271;-52
2023/09/19 03:38:07;;;;;;;2.10;1.40;;;25.40;64.70;;;;;;229573;1263;22265;-52
2023/09/19 03:43:10;;;;;;;4.00;1.50;;;25.40;64.60;;;;;;229573;1263;22351;-52
2023/09/19 03:48:13;;;;;;;3.20;1.90;;;25.40;64.60;;;;;;229581;1257;22348;-51
2023/09/19 03:53:15;;;;;;;2.40;1.60;;;25.40;64.60;;;;;;229517;1263;22361;-52
2023/09/19 03:58:18;;;;;;;3.20;1.40;;;25.30;64.60;;;;;;229615;1253;22301;-51
2023/09/19 04:03:21;;;;;;;1.70;1.60;;;25.40;64.80;;;;;;229550;1263;22262;-50
2023/09/19 04:08:24;;;;;;;2.30;1.60;;;25.30;65.10;;;;;;229642;1247;22325;-52
2023/09/19 04:13:26;;;;;;;2.30;1.60;;;25.30;64.60;;;;;;229594;1263;22252;-52
2023/09/19 04:18:33;;;;;;;1.70;1.60;;;25.30;64.70;;;;;;221355;1263;25238;-51
2023/09/19 04:23:36;;;;;;;2.20;1.40;;;25.20;65.80;;;;;;229457;1248;22295;-55
2023/09/19 04:28:39;;;;;;;2.80;1.50;;;25.10;65.80;;;;;;229582;1248;22393;-53
2023/09/19 04:33:43;;;;;;;4.20;1.50;;;25.20;65.50;;;;;;229558;1263;22280;-51
2023/09/19 04:38:46;;;;;;;2.40;1.40;;;25.20;65.80;;;;;;229652;1252;22642;-52
2023/09/19 04:43:50;;;;;;;1.80;1.10;;;25.20;65.00;;;;;;229533;1263;22254;-53
2023/09/19 04:48:53;;;;;;;3.30;1.80;;;25.20;64.90;;;;;;229629;1251;22282;-53
2023/09/19 04:53:56;;;;;;;1.80;1.30;;;25.20;65.00;;;;;;229514;1263;22994;-52
2023/09/19 04:58:59;;;;;;;1.90;1.50;;;25.20;65.00;;;;;;229611;1251;22248;-51
2023/09/19 05:04:04;;;;;;;2.20;1.40;;;25.20;65.30;;;;;;227655;1257;25339;-51
2023/09/19 05:09:08;;;;;;;4.30;1.50;;;25.20;65.10;;;;;;229491;1263;22282;-53
2023/09/19 05:14:11;;;;;;;1.50;1.40;;;25.20;65.40;;;;;;229556;1252;22325;-51
2023/09/19 05:19:14;;;;;;;3.90;1.50;;;25.20;64.90;;;;;;225854;1263;24405;-51
2023/09/19 05:24:17;;;;;;;2.10;1.70;;;25.20;64.70;;;;;;229563;1249;22488;-53
2023/09/19 05:29:20;;;;;;;1.50;1.40;;;25.20;65.60;;;;;;229532;1249;22338;-52
2023/09/19 05:34:22;;;;;;;2.40;1.40;;;25.20;65.00;;;;;;229585;1252;22305;-52
2023/09/19 05:39:25;;;;;;;1.80;1.50;;;25.20;64.70;;;;;;221261;1257;22525;-51
2023/09/19 05:44:28;;;;;;;4.70;1.20;;;25.10;65.20;;;;;;220881;1252;22624;-52
2023/09/19 05:49:31;;;;;;;1.30;1.10;;;25.00;66.30;;;;;;229497;1263;22272;-52
2023/09/19 05:54:34;;;;;;;4.30;1.40;;;25.00;66.00;;;;;;229650;1249;22962;-51
2023/09/19 05:59:36;;;;;;;3.90;1.20;;;25.10;65.80;;;;;;227868;1263;25605;-51
2023/09/19 06:04:40;;;;;;;3.40;1.30;;;25.20;65.50;;;;;;220887;1263;22523;-52
2023/09/19 06:09:43;;;;;;;6.30;1.20;;;25.20;65.60;;;;;;229404;1252;23415;-51
2023/09/19 06:14:46;;;;;;;2.10;1.30;;;25.20;65.30;;;;;;229380;1252;22484;-52
2023/09/19 06:19:50;;;;;;;2.90;1.30;;;25.30;66.00;;;;;;229341;1263;22246;-52
2023/09/19 06:24:53;;;;;;;4.40;2.10;;;25.40;65.90;;;;;;229552;1263;22292;-50
2023/09/19 06:29:55;;;;;;;3.00;1.20;;;25.40;66.60;;;;;;229515;1263;22348;-50
2023/09/19 06:34:59;;;;;;;2.60;1.60;;;25.50;66.00;;;;;;229509;1249;22285;-53
2023/09/19 06:40:02;;;;;;;4.20;1.60;;;25.50;65.90;;;;;;229576;1263;23149;-52
2023/09/19 06:45:06;;;;;;;3.30;1.60;;;25.50;65.90;;;;;;229480;1263;23015;-50
2023/09/19 06:50:12;;;;;;;10.70;1.70;;;25.50;66.60;;;;;;229555;1263;24019;-51
2023/09/19 06:55:17;;;;;;;3.40;1.40;;;25.50;66.10;;;;;;229494;1260;22246;-51
2023/09/19 07:00:21;;;;;;;14.70;2.30;;;25.50;66.00;;;;;;226746;1264;23212;-51
2023/09/19 07:05:24;;;;;;;5.70;1.60;;;25.50;66.50;;;;;;229412;1253;22277;-54
2023/09/19 07:10:28;;;;;;;5.90;1.90;;;25.50;66.00;;;;;;229372;1263;22367;-54
2023/09/19 07:15:35;;;;;;;6.50;1.90;;;25.60;66.00;;;;;;229402;1264;22253;-51
2023/09/19 07:20:38;;;;;;;5.40;1.90;;;25.60;65.70;;;;;;228956;1259;22533;-57
2023/09/19 07:25:41;;;;;;;6.20;1.40;;;25.60;65.80;;;;;;229552;1252;22367;-57
2023/09/19 07:30:44;;;;;;;6.40;1.80;;;25.60;66.00;;;;;;229547;1260;22851;-58
2023/09/19 07:35:47;;;;;;;3.00;1.20;;;25.70;65.40;;;;;;229491;1264;23023;-56
2023/09/19 07:40:50;;;;;;;4.30;1.70;;;25.90;64.80;;;;;;229534;1256;22233;-56
2023/09/19 07:45:53;;;;;;;5.60;1.90;;;25.90;64.70;;;;;;229559;1253;22290;-57
2023/09/19 07:50:56;;;;;;;3.20;1.30;;;25.90;64.70;;;;;;229372;1255;22268;-57
2023/09/19 07:56:03;;;;;;;5.50;1.40;;;25.90;64.60;;;;;;229446;1256;22971;-57
2023/09/19 08:01:07;;;;;;;2.10;1.40;;;25.90;64.70;;;;;;229372;1264;23205;-58
2023/09/19 08:06:10;;;;;;;3.60;1.60;;;25.90;64.50;;;;;;229433;1251;22397;-55
2023/09/19 08:11:21;;;;;;;4.40;1.20;;;25.90;64.70;;;;;;229545;1252;23091;-57
2023/09/19 08:16:24;;;;;;;2.40;1.40;;;25.80;65.00;;;;;;229467;1253;22631;-59
2023/09/19 08:21:29;;;;;;;3.50;1.60;;;25.80;65.00;;;;;;229523;1264;22275;-57
2023/09/19 08:26:32;;;;;;;1.70;1.10;;;25.90;64.80;;;;;;229552;1264;22355;-57
2023/09/19 08:31:35;;;;;;;1.90;1.50;;;25.90;64.60;;;;;;229476;1259;24156;-58
2023/09/19 08:36:39;;;;;;;3.50;1.30;;;25.90;64.80;;;;;;229526;1253;24026;-58
2023/09/19 08:41:41;;;;;;;3.20;1.60;;;25.80;64.80;;;;;;229497;1263;22275;-54
2023/09/19 08:46:45;;;;;;;1.40;1.20;;;25.80;64.70;;;;;;229527;1263;22338;-56
2023/09/19 08:51:57;;;;;;;3.30;1.30;;;25.70;64.90;;;;;;229418;1264;22266;-54
2023/09/19 08:57:07;;;;;;;2.40;1.20;;;25.70;65.00;;;;;;229558;1251;22938;-52
2023/09/19 09:02:15;;;;;;;3.80;1.40;;;25.80;65.00;;;;;;229500;1260;22276;-56
2023/09/19 09:07:20;;;;;;;3.80;1.40;;;25.80;64.70;;;;;;229502;1251;22272;-55
2023/09/19 09:12:23;;;;;;;2.30;1.10;;;25.80;64.40;;;;;;228100;1255;25266;-53
2023/09/19 09:17:27;;;;;;;2.10;1.30;;;25.80;64.60;;;;;;229473;1264;22259;-54
2023/09/19 09:22:31;;;;;;;1.70;1.30;;;25.70;64.90;;;;;;229509;1263;22359;-53
2023/09/19 09:27:34;;;;;;;2.10;1.60;;;25.80;64.80;;;;;;221696;1264;24226;-52
2023/09/19 09:32:39;;;;;;;1.80;1.20;;;25.70;64.80;;;;;;222912;1264;22526;-52
2023/09/19 09:38:06;;;;;;;1.50;1.40;;;25.60;65.10;;;;;;224302;1248;22544;-53
2023/09/19 09:43:27;;;;;;;2.70;1.40;;;25.60;65.50;;;;;;221809;1248;22800;-53
2023/09/19 09:48:31;;;;;;;1.30;1.00;;;25.60;65.50;;;;;;222059;1263;22750;-52
2023/09/19 09:53:36;;;;;;;2.40;1.30;;;25.70;64.60;;;;;;222012;1252;22599;-53
2023/09/19 09:59:05;;;;;;;2.60;1.30;;;25.70;64.40;;;;;;229521;1249;22284;-54
2023/09/19 10:04:08;;;;;;;1.60;1.40;;;25.70;64.30;;;;;;221377;1263;24210;-53
2023/09/19 10:09:11;;;;;;;1.60;1.20;;;25.80;64.00;;;;;;229565;1264;22739;-54
2023/09/19 10:14:23;;;;;;;1.50;1.30;;;25.80;63.70;;;;;;229569;1247;22405;-52
2023/09/19 10:19:53;;;;;;;1.80;1.20;;;26.00;63.20;;;;;;229607;1247;22374;-54
2023/09/19 10:24:59;;;;;;;1.50;1.10;;;25.90;63.10;;;;;;222005;1248;22730;-54
2023/09/19 10:30:07;;;;;;;3.80;1.20;;;25.90;63.60;;;;;;221726;1247;24256;-54
2023/09/19 10:35:13;;;;;;;1.90;1.50;;;25.70;63.80;;;;;;229569;1247;22802;-51
2023/09/19 10:40:17;;;;;;;1.60;1.20;;;25.90;63.40;;;;;;229482;1263;22369;-54
2023/09/19 10:45:22;;;;;;;1.70;1.40;;;26.00;63.00;;;;;;229485;1257;22286;-55
2023/09/19 10:50:31;;;;;;;1.90;1.40;;;26.00;63.20;;;;;;220743;1263;22542;-56
2023/09/19 10:55:35;;;;;;;1.40;1.30;;;26.00;63.10;;;;;;224850;1248;22640;-56
2023/09/19 11:01:11;;;;;;;1.60;1.20;;;25.90;63.20;;;;;;223982;1251;24144;-53
2023/09/19 11:06:20;;;;;;;1.60;1.10;;;25.90;63.40;;;;;;228549;1248;22415;-56
2023/09/19 11:11:41;;;;;;;1.10;1.10;;;26.00;62.70;;;;;;230041;1259;22315;-57
2023/09/19 11:17:07;;;;;;;0.90;0.90;;;26.20;62.40;;;;;;229977;1248;23048;-56
2023/09/19 11:22:11;;;;;;;2.40;1.30;;;26.10;62.60;;;;;;228237;1263;24289;-57
2023/09/19 11:27:17;;;;;;;1.40;1.20;;;26.30;62.00;;;;;;227867;1263;25300;-57
2023/09/19 11:33:01;;;;;;;1.20;1.00;;;26.50;61.60;;;;;;228107;1260;23927;-56
2023/09/19 11:38:05;;;;;;;2.80;1.30;;;26.60;61.10;;;;;;230033;1251;22307;-56
2023/09/19 11:43:31;;;;;;;13.30;1.30;;;26.60;61.00;;;;;;229667;1263;22422;-54
2023/09/19 11:48:35;;;;;;;2.20;1.40;;;26.60;61.10;;;;;;229529;1251;22281;-54
2023/09/19 11:53:39;;;;;;;1.50;1.20;;;26.70;60.60;;;;;;223810;1258;22583;-52
2023/09/19 11:58:45;;;;;;;2.00;1.00;;;26.70;60.70;;;;;;225451;1247;25289;-53
2023/09/19 12:03:53;;;;;;;1.20;1.10;;;26.60;60.90;;;;;;228926;1253;22659;-55
2023/09/19 12:08:59;;;;;;;3.40;1.30;;;26.70;60.60;;;;;;229517;1263;22256;-54
2023/09/19 12:14:03;;;;;;;1.00;1.00;;;26.80;60.50;;;;;;229337;1249;234156;-53
2023/09/19 12:19:23;;;;;;;1.20;1.10;;;26.80;60.00;;;;;;229537;1263;22241;-56
2023/09/19 12:24:29;;;;;;;1.60;1.00;;;26.80;60.30;;;;;;229520;1247;23124;-57
2023/09/19 12:29:49;;;;;;;1.70;1.00;;;26.80;60.10;;;;;;223997;1255;22527;-57
2023/09/19 12:34:54;;;;;;;1.50;1.10;;;26.90;60.30;;;;;;223319;1249;25488;-59
2023/09/19 12:40:21;;;;;;;1.50;0.80;;;26.80;60.10;;;;;;229513;1248;22591;-57
2023/09/19 12:45:24;;;;;;;1.20;1.10;;;26.80;60.00;;;;;;229466;1247;22317;-54
2023/09/19 12:50:29;;;;;;;3.50;1.50;;;27.00;59.60;;;;;;229385;1253;22643;-53
2023/09/19 12:55:37;;;;;;;3.80;1.80;;;27.10;58.40;;;;;;229456;1248;22267;-53
2023/09/19 13:00:42;;;;;;;4.00;1.50;;;27.20;56.50;;;;;;229510;1247;23016;-56
2023/09/19 13:05:55;;;;;;;2.10;1.70;;;27.20;55.90;;;;;;229468;1248;23960;-50
2023/09/19 13:11:12;;;;;;;5.30;1.50;;;27.20;55.40;;;;;;229477;1251;22316;-53
2023/09/19 13:16:19;;;;;;;2.20;1.70;;;27.10;55.60;;;;;;229506;1247;22282;-52
2023/09/19 13:21:37;;;;;;;3.00;1.60;;;27.10;54.60;;;;;;229514;1248;22769;-51
2023/09/19 13:26:40;;;;;;;6.10;1.50;;;27.20;53.50;;;;;;229500;1247;22268;-54
2023/09/19 13:31:46;;;;;;;2.10;1.20;;;27.20;52.80;;;;;;229454;1248;22829;-56
2023/09/19 13:36:49;;;;;;;1.70;1.40;;;27.20;52.90;;;;;;229554;1247;22262;-57
2023/09/19 13:41:51;;;;;;;2.90;1.10;;;27.20;52.90;;;;;;229631;1248;22264;-53
2023/09/19 13:46:56;;;;;;;1.10;1.00;;;27.30;52.80;;;;;;229629;1247;22256;-51
2023/09/19 13:52:03;;;;;;;2.20;1.30;;;27.20;52.50;;;;;;229547;1248;23001;-52
2023/09/19 13:57:05;;;;;;;4.40;1.10;;;27.10;53.30;;;;;;229585;1248;22271;-53
2023/09/19 14:02:11;;;;;;;1.50;1.10;;;27.00;53.30;;;;;;229506;1248;22286;-53
2023/09/19 14:07:15;;;;;;;1.80;1.20;;;26.80;53.30;;;;;;229580;1248;22268;-54
2023/09/19 14:12:17;;;;;;;1.20;1.10;;;26.80;52.80;;;;;;229614;1247;22279;-54
2023/09/19 14:17:20;;;;;;;1.30;1.10;;;26.70;51.70;;;;;;229636;1249;22275;-51
2023/09/19 14:22:23;;;;;;;1.80;1.10;;;26.40;51.40;;;;;;229599;1247;22265;-52
2023/09/19 14:27:26;;;;;;;3.30;1.30;;;26.30;50.50;;;;;;229678;1249;23201;-53
2023/09/19 14:32:28;;;;;;;0.90;0.80;;;26.40;50.00;;;;;;229695;1247;22213;-54
2023/09/19 14:37:31;;;;;;;1.40;1.00;;;26.50;50.30;;;;;;229665;1248;22478;-54
2023/09/19 14:42:45;;;;;;;4.30;1.40;;;26.50;50.70;;;;;;229665;1247;22273;-50
2023/09/19 14:47:48;;;;;;;3.00;0.80;;;26.40;50.40;;;;;;229539;1248;22271;-55
2023/09/19 14:52:53;;;;;;;3.30;1.10;;;26.30;50.30;;;;;;229640;1263;22283;-54
2023/09/19 14:57:58;;;;;;;2.20;0.90;;;26.50;50.10;;;;;;229672;1263;22470;-57
2023/09/19 15:03:01;;;;;;;4.20;1.10;;;26.50;50.40;;;;;;229565;1263;22347;-54
2023/09/19 15:08:05;;;;;;;3.40;1.30;;;26.20;51.40;;;;;;229611;1247;22344;-50
2023/09/19 15:13:09;;;;;;;5.30;1.30;;;26.20;51.90;;;;;;229571;1258;22266;-51
2023/09/19 15:18:12;;;;;;;1.70;1.10;;;26.50;52.00;;;;;;229593;1251;23161;-52
2023/09/19 15:23:18;;;;;;;12.70;1.40;;;26.50;52.50;;;;;;229574;1263;22330;-53
2023/09/19 15:28:22;;;;;;;3.10;1.30;;;26.50;52.90;;;;;;229603;1249;22287;-54
2023/09/19 15:33:28;;;;;;;6.50;1.80;;;26.60;53.10;;;;;;229583;1263;22503;-53
2023/09/19 15:38:32;;;;;;;6.70;1.20;;;26.60;53.30;;;;;;229544;1249;22303;-52
2023/09/19 15:43:35;;;;;;;5.80;1.50;;;26.50;53.30;;;;;;229605;1249;22259;-52
2023/09/19 15:48:38;;;;;;;4.10;1.60;;;26.30;53.50;;;;;;229681;1263;22256;-55
2023/09/19 15:53:48;;;;;;;6.70;1.70;;;26.20;54.20;;;;;;228704;1263;22588;-53
2023/09/19 15:58:53;;;;;;;3.90;1.40;;;26.20;54.30;;;;;;229695;1260;22998;-55
2023/09/19 16:03:58;;;;;;;7.40;1.50;;;26.20;54.30;;;;;;229636;1263;22286;-55
2023/09/19 16:09:03;;;;;;;8.00;1.30;;;26.10;53.60;;;;;;229706;1263;22263;-55
2023/09/19 16:14:06;;;;;;;8.00;1.50;;;25.90;53.40;;;;;;229655;1249;22335;-54
2023/09/19 16:19:11;;;;;;;1.80;1.20;;;26.00;54.00;;;;;;229635;1263;22278;-53
2023/09/19 16:24:16;;;;;;;5.60;1.20;;;26.10;53.70;;;;;;229594;1263;22280;-53
2023/09/19 16:29:24;;;;;;;44.00;5.70;;;26.30;56.10;;;;;;229613;1260;22300;-56
2023/09/19 16:34:27;;;;;;;18.20;1.60;;;26.30;54.70;;;;;;229480;1251;22296;-53
2023/09/19 16:39:30;;;;;;;5.20;1.50;;;26.20;55.00;;;;;;229465;1263;22270;-52
2023/09/19 16:44:34;;;;;;;10.80;1.50;;;26.30;54.60;;;;;;229539;1248;23019;-53
2023/09/19 16:49:37;;;;;;;8.80;1.30;;;26.20;54.10;;;;;;229492;1252;23182;-55
2023/09/19 16:54:42;;;;;;;7.90;1.50;;;26.20;54.00;;;;;;229479;1263;22372;-55
2023/09/19 16:59:46;;;;;;;5.00;1.40;;;26.10;54.00;;;;;;229512;1264;22399;-53
2023/09/19 17:04:51;;;;;;;7.80;1.60;;;26.10;53.90;;;;;;229567;1263;22250;-51
2023/09/19 17:09:55;;;;;;;5.50;1.40;;;26.20;54.30;;;;;;229557;1263;22244;-58
2023/09/19 17:15:01;;;;;;;4.00;1.40;;;26.00;54.30;;;;;;229556;1263;22296;-54
2023/09/19 17:20:07;;;;;;;2.60;1.80;;;26.00;54.50;;;;;;229507;1256;22305;-54
2023/09/19 17:25:14;;;;;;;5.80;1.60;;;26.00;54.50;;;;;;227749;1252;22534;-54
2023/09/19 17:30:22;;;;;;;2.80;1.30;;;26.20;56.30;;;;;;229503;1252;22288;-55
2023/09/19 17:35:25;;;;;;;4.00;1.40;;;26.10;55.20;;;;;;229258;1264;22523;-55
2023/09/19 17:40:30;;;;;;;2.00;1.30;;;26.10;55.40;;;;;;229551;1249;22249;-53
2023/09/19 17:45:34;;;;;;;2.50;1.20;;;26.20;55.60;;;;;;229512;1263;22279;-53
2023/09/19 17:50:38;;;;;;;3.50;1.10;;;26.20;55.70;;;;;;229574;1251;22326;-55
2023/09/19 17:55:46;;;;;;;5.90;1.60;;;26.30;57.80;;;;;;229511;1256;22308;-51
2023/09/19 18:00:51;;;;;;;3.60;1.60;;;26.30;58.90;;;;;;229506;1263;22255;-54
2023/09/19 18:05:55;;;;;;;6.30;2.20;;;26.10;57.20;;;;;;229573;1263;22252;-52
2023/09/19 18:11:14;;;;;;;2.30;1.70;;;26.00;57.80;;;;;;229552;1263;23162;-52
2023/09/19 18:16:24;;;;;;;2.90;1.80;;;26.00;58.30;;;;;;229398;1258;22309;-52
2023/09/19 18:21:30;;;;;;;4.20;1.70;;;26.10;57.80;;;;;;229547;1264;22356;-51
2023/09/19 18:26:35;;;;;;;3.80;1.70;;;26.00;56.40;;;;;;229529;1249;22349;-54
2023/09/19 18:31:41;;;;;;;2.70;1.50;;;25.90;56.30;;;;;;229481;1264;22260;-55
2023/09/19 18:36:46;;;;;;;5.40;1.70;;;26.00;56.10;;;;;;229497;1258;22317;-55
2023/09/19 18:41:51;;;;;;;4.30;1.70;;;26.00;56.00;;;;;;221757;1264;22524;-56
2023/09/19 18:47:01;;;;;;;2.10;1.70;;;25.90;56.80;;;;;;229577;1251;22271;-54
2023/09/19 18:52:08;;;;;;;7.50;1.80;;;25.70;56.20;;;;;;229582;1260;22269;-55
2023/09/19 18:57:14;;;;;;;4.70;1.70;;;25.80;56.30;;;;;;229538;1263;22282;-55
2023/09/19 19:02:26;;;;;;;7.60;1.90;;;25.80;56.40;;;;;;229569;1263;22255;-53
2023/09/19 19:07:31;;;;;;;7.20;1.40;;;25.70;56.00;;;;;;229562;1247;23209;-53
2023/09/19 19:12:36;;;;;;;5.00;1.80;;;26.00;56.30;;;;;;229564;1263;22297;-53
2023/09/19 19:17:43;;;;;;;5.30;1.70;;;25.90;56.00;;;;;;226047;1255;25490;-53
2023/09/19 19:22:51;;;;;;;2.00;1.60;;;25.80;56.10;;;;;;229591;1263;22272;-52
2023/09/19 19:27:59;;;;;;;3.90;1.60;;;25.80;55.80;;;;;;229567;1252;22346;-54
2023/09/19 19:33:04;;;;;;;4.30;2.20;;;25.70;55.40;;;;;;229567;1252;22785;-53
2023/09/19 19:38:10;;;;;;;2.10;1.50;;;25.50;55.70;;;;;;229572;1249;22258;-54
2023/09/19 19:43:15;;;;;;;2.30;1.50;;;25.40;55.70;;;;;;229395;1249;22432;-56
2023/09/19 19:48:20;;;;;;;2.40;2.00;;;25.40;55.70;;;;;;229493;1263;22279;-52
2023/09/19 19:53:28;;;;;;;4.10;1.70;;;25.40;55.50;;;;;;229573;1249;22358;-51
2023/09/19 19:58:35;;;;;;;6.70;2.60;;;25.30;55.10;;;;;;229520;1263;22270;-52
2023/09/19 20:03:41;;;;;;;7.80;3.00;;;24.80;55.50;;;;;;229532;1252;22253;-50
2023/09/19 20:08:45;;;;;;;6.30;2.40;;;24.60;55.60;;;;;;224554;1250;22628;-51
2023/09/19 20:13:50;;;;;;;2.20;2.00;;;24.50;55.20;;;;;;229504;1249;23078;-51
2023/09/19 20:19:06;;;;;;;4.50;1.90;;;24.30;55.50;;;;;;229540;1252;22276;-50
2023/09/19 20:24:13;;;;;;;2.40;1.60;;;24.40;55.30;;;;;;229648;1263;23055;-51
2023/09/19 20:29:18;;;;;;;5.10;2.40;;;24.30;55.10;;;;;;224037;1250;22618;-51
2023/09/19 20:34:22;;;;;;;7.00;1.80;;;24.20;55.50;;;;;;229556;1252;22390;-51
2023/09/19 20:39:27;;;;;;;6.20;2.00;;;24.00;56.00;;;;;;229515;1263;22334;-53
2023/09/19 20:44:33;;;;;;;4.00;2.10;;;24.00;55.80;;;;;;229588;1252;24021;-52
2023/09/19 20:49:36;;;;;;;6.50;2.00;;;23.90;55.80;;;;;;229449;1263;23051;-53
2023/09/19 20:54:42;;;;;;;4.20;2.60;;;23.90;55.80;;;;;;229481;1252;22343;-50
2023/09/19 20:59:45;;;;;;;2.70;2.50;;;23.80;55.90;;;;;;229554;1252;22341;-55
2023/09/19 21:04:50;;;;;;;3.40;2.50;;;23.80;55.60;;;;;;229469;1252;23075;-51
2023/09/19 21:09:52;;;;;;;7.00;2.60;;;23.70;55.30;;;;;;229551;1260;22269;-52
2023/09/19 21:14:56;;;;;;;6.60;2.80;;;23.60;55.00;;;;;;229508;1252;23552;-54
2023/09/19 21:19:58;;;;;;;3.30;2.60;;;23.50;55.20;;;;;;229496;1263;22274;-53
2023/09/19 21:25:01;;;;;;;4.00;2.90;;;23.40;55.30;;;;;;229530;1263;22293;-50
2023/09/19 21:30:05;;;;;;;2.70;2.40;;;23.30;55.40;;;;;;229472;1263;24024;-52
2023/09/19 21:35:09;;;;;;;2.60;2.40;;;23.30;55.30;;;;;;229469;1256;22346;-50
2023/09/19 21:40:11;;;;;;;2.50;1.90;;;23.20;55.50;;;;;;229492;1263;22255;-51
2023/09/19 21:45:16;;;;;;;3.10;1.90;;;23.20;55.30;;;;;;229526;1263;22264;-49
2023/09/19 21:50:19;;;;;;;3.20;1.90;;;23.30;55.20;;;;;;229545;1256;24197;-53
2023/09/19 21:55:26;;;;;;;5.20;2.10;;;23.70;54.40;;;;;;229550;1252;23024;-51
2023/09/19 22:00:38;;;;;;;2.30;1.80;;;23.90;54.00;;;;;;229534;1263;22270;-51
2023/09/19 22:05:41;;;;;;;2.30;2.00;;;24.00;53.70;;;;;;229528;1252;22289;-53
2023/09/19 22:10:48;;;;;;;4.20;3.30;;;24.00;54.30;;;;;;229442;1249;23216;-53
2023/09/19 22:15:58;;;;;;;5.40;3.30;;;24.00;53.90;;;;;;229481;1252;22320;-53
2023/09/19 22:21:11;;;;;;;2.40;2.00;;;24.10;54.20;;;;;;229471;1250;23098;-51
2023/09/19 22:26:18;;;;;;;5.30;2.70;;;24.20;54.80;;;;;;222289;1263;24061;-51
2023/09/19 22:31:26;;;;;;;3.30;2.60;;;24.20;54.50;;;;;;229590;1263;22266;-53
2023/09/19 22:36:38;;;;;;;2.60;2.40;;;24.00;54.90;;;;;;229622;1252;22738;-55
2023/09/19 22:41:41;;;;;;;4.50;2.60;;;24.10;54.30;;;;;;229630;1263;22509;-52
2023/09/19 22:46:44;;;;;;;3.70;2.10;;;24.10;54.00;;;;;;229557;1263;22991;-53
2023/09/19 22:51:51;;;;;;;2.10;1.90;;;24.10;54.00;;;;;;229613;1249;22283;-51
2023/09/19 22:56:55;;;;;;;3.00;2.70;;;24.10;54.10;;;;;;229610;1251;22933;-50
2023/09/19 23:01:59;;;;;;;3.30;2.70;;;24.10;54.30;;;;;;229614;1252;23229;-52
2023/09/19 23:07:05;;;;;;;2.90;2.20;;;24.10;53.70;;;;;;229628;1263;22278;-51
2023/09/19 23:12:10;;;;;;;3.00;2.40;;;24.10;54.00;;;;;;229621;1263;22378;-48
2023/09/19 23:17:21;;;;;;;4.60;2.10;;;24.10;55.00;;;;;;229562;1252;22406;-50
2023/09/19 23:22:27;;;;;;;2.60;2.10;;;24.10;54.00;;;;;;229631;1252;22365;-52
2023/09/19 23:27:34;;;;;;;2.90;2.70;;;24.10;54.10;;;;;;229608;1263;22252;-51
2023/09/19 23:32:38;;;;;;;2.40;2.10;;;24.10;54.10;;;;;;229582;1263;22279;-50
2023/09/19 23:37:40;;;;;;;2.90;2.40;;;24.00;53.70;;;;;;229505;1251;22928;-50
2023/09/19 23:42:43;;;;;;;5.40;2.50;;;24.00;54.10;;;;;;229564;1263;24373;-52
2023/09/19 23:47:50;;;;;;;3.10;2.40;;;24.00;53.80;;;;;;229550;1249;22254;-52
2023/09/19 23:52:53;;;;;;;4.10;2.60;;;24.00;54.00;;;;;;229450;1264;23463;-49
2023/09/19 23:58:01;;;;;;;2.80;2.30;;;24.00;53.80;;;;;;229492;1252;22316;-50
